createdAt,value
2023-05-24T00:02:49.893Z,100726.09
2023-05-24T00:07:55.366Z,100718.59
2023-05-24T00:12:59.002Z,100711.94
2023-05-24T00:18:02.706Z,100717.69
2023-05-24T00:23:08.102Z,100722.31
2023-05-24T00:28:11.802Z,100725.47
2023-05-24T00:33:15.471Z,100725.41
2023-05-24T00:38:20.821Z,100740.00
2023-05-24T00:43:24.805Z,100724.47
2023-05-24T00:48:28.581Z,100734.09
2023-05-24T00:53:36.241Z,100723.63
2023-05-24T00:58:40.398Z,100716.59
2023-05-24T01:03:44.292Z,100716.13
2023-05-24T01:09:03.419Z,100720.56
2023-05-24T01:14:19.313Z,100715.81
2023-05-24T01:19:44.551Z,100707.00
2023-05-24T01:25:01.671Z,100713.53
2023-05-24T01:30:09.135Z,100703.84
2023-05-24T01:35:12.961Z,100709.28
2023-05-24T01:40:17.204Z,100698.75
2023-05-24T01:45:31.254Z,100697.44
2023-05-24T01:50:39.433Z,100691.13
2023-05-24T01:55:44.987Z,100698.25
2023-05-24T02:00:52.534Z,100689.28
2023-05-24T02:05:56.226Z,100688.34
2023-05-24T02:10:59.876Z,100684.22
2023-05-24T02:16:05.585Z,100690.91
2023-05-24T02:21:08.471Z,100687.28
2023-05-24T02:26:12.143Z,100683.25
2023-05-24T02:31:17.478Z,100693.31
2023-05-24T02:36:21.282Z,100694.94
2023-05-24T02:41:24.936Z,100710.78
2023-05-24T02:46:30.279Z,100708.88
2023-05-24T02:51:33.943Z,100704.69
2023-05-24T02:56:37.743Z,100703.97
2023-05-24T03:01:43.068Z,100703.00
2023-05-24T03:06:47.558Z,100699.72
2023-05-24T03:11:51.220Z,100703.63
2023-05-24T03:16:57.501Z,100705.34
2023-05-24T03:22:01.196Z,100705.34
2023-05-24T03:27:05.149Z,100713.47
2023-05-24T03:32:10.500Z,100720.75
2023-05-24T03:37:14.154Z,100723.53
2023-05-24T03:42:17.857Z,100734.56
2023-05-24T03:47:23.241Z,100739.13
2023-05-24T03:52:27.072Z,100742.06
2023-05-24T03:57:30.720Z,100743.28
2023-05-24T04:02:36.061Z,100746.91
2023-05-24T04:07:39.890Z,100752.59
2023-05-24T04:12:43.567Z,100756.34
2023-05-24T04:17:48.897Z,100752.34
2023-05-24T04:22:52.646Z,100757.78
2023-05-24T04:27:56.355Z,100754.88
2023-05-24T04:33:01.814Z,100753.53
2023-05-24T04:38:05.590Z,100756.88
2023-05-24T04:43:09.699Z,100756.91
2023-05-24T04:48:15.049Z,100755.19
2023-05-24T04:53:18.752Z,100771.91
2023-05-24T04:58:22.531Z,100770.09
2023-05-24T05:03:27.987Z,100778.44
2023-05-24T05:08:31.732Z,100778.81
2023-05-24T05:13:35.378Z,100786.13
2023-05-24T05:18:40.671Z,100767.81
2023-05-24T05:23:44.337Z,100774.44
2023-05-24T05:28:47.994Z,100778.91
2023-05-24T05:33:53.732Z,100783.59
2023-05-24T05:38:58.143Z,100792.41
2023-05-24T05:44:01.838Z,100794.38
2023-05-24T05:49:07.755Z,100784.16
2023-05-24T05:54:10.962Z,100776.50
2023-05-24T05:59:15.223Z,100773.81
2023-05-24T06:04:20.625Z,100759.22
2023-05-24T06:09:24.387Z,100769.34
2023-05-24T06:14:28.169Z,100782.59
2023-05-24T06:19:33.479Z,100778.34
2023-05-24T06:24:37.148Z,100776.94
2023-05-24T06:29:40.830Z,100772.94
2023-05-24T06:34:47.158Z,100769.75
2023-05-24T06:39:50.812Z,100765.13
2023-05-24T06:44:54.467Z,100761.78
2023-05-24T06:49:59.765Z,100744.50
2023-05-24T06:55:03.464Z,100741.28
2023-05-24T07:00:08.615Z,100751.00
2023-05-24T07:05:13.973Z,100754.91
2023-05-24T07:10:17.742Z,100777.72
2023-05-24T07:15:21.467Z,100783.88
2023-05-24T07:20:27.017Z,100800.47
2023-05-24T07:25:31.129Z,100793.59
2023-05-24T07:30:34.978Z,100789.41
2023-05-24T07:35:41.430Z,100796.34
2023-05-24T07:41:03.750Z,100788.81
2023-05-24T07:46:07.482Z,100792.44
2023-05-24T07:51:11.142Z,100784.69
2023-05-24T07:56:16.451Z,100790.00
2023-05-24T08:01:20.139Z,100789.38
2023-05-24T08:06:23.905Z,100789.56
2023-05-24T08:11:29.256Z,100788.75
2023-05-24T08:16:33.522Z,100802.81
2023-05-24T08:21:37.210Z,100799.25
2023-05-24T08:26:42.580Z,100782.84
2023-05-24T08:31:46.270Z,100792.56
2023-05-24T08:36:50.504Z,100790.06
2023-05-24T08:42:08.526Z,100779.09
2023-05-24T08:47:13.834Z,100779.28
2023-05-24T08:52:18.804Z,100784.47
2023-05-24T08:57:27.137Z,100788.91
2023-05-24T09:02:32.416Z,100785.56
2023-05-24T09:07:36.206Z,100770.88
2023-05-24T09:12:45.307Z,100767.50
2023-05-24T09:17:49.000Z,100775.31
2023-05-24T09:22:53.482Z,100777.97
2023-05-24T09:27:58.880Z,100780.75
2023-05-24T09:33:02.834Z,100789.66
2023-05-24T09:38:06.538Z,100782.75
2023-05-24T09:43:12.297Z,100790.59
2023-05-24T09:48:16.707Z,100802.09
2023-05-24T09:53:23.044Z,100818.78
2023-05-24T09:58:31.044Z,100832.69
2023-05-24T10:03:35.533Z,100825.84
2023-05-24T10:08:39.862Z,100820.50
2023-05-24T10:13:45.646Z,100833.53
2023-05-24T10:18:49.360Z,100836.31
2023-05-24T10:23:55.789Z,100838.94
2023-05-24T10:29:07.534Z,100833.28
2023-05-24T10:34:11.926Z,100824.63
2023-05-24T10:39:15.638Z,100822.91
2023-05-24T10:44:21.625Z,100808.75
2023-05-24T10:49:25.259Z,100803.88
2023-05-24T10:54:28.955Z,100804.97
2023-05-24T10:59:36.513Z,100798.28
2023-05-24T11:04:41.299Z,100802.63
2023-05-24T11:09:48.175Z,100802.06
2023-05-24T11:14:54.695Z,100783.66
2023-05-24T11:19:58.593Z,100780.19
2023-05-24T11:25:03.036Z,100775.81
2023-05-24T11:30:10.315Z,100787.78
2023-05-24T11:35:14.012Z,100788.06
2023-05-24T11:40:18.236Z,100817.59
2023-05-24T11:45:23.724Z,100814.78
2023-05-24T11:50:28.811Z,100813.06
2023-05-24T11:55:33.336Z,100827.03
2023-05-24T12:00:38.757Z,100831.66
2023-05-24T12:05:42.443Z,100840.59
2023-05-24T12:10:46.215Z,100838.66
2023-05-24T12:15:55.853Z,100846.34
2023-05-24T12:21:00.554Z,100843.72
2023-05-24T12:26:04.313Z,100850.66
2023-05-24T12:31:10.658Z,100856.66
2023-05-24T12:36:14.962Z,100862.00
2023-05-24T12:41:18.621Z,100879.22
2023-05-24T12:46:23.932Z,100886.03
2023-05-24T12:51:27.635Z,100887.78
2023-05-24T12:56:31.352Z,100884.16
2023-05-24T13:01:37.851Z,100886.56
2023-05-24T13:06:41.663Z,100885.75
2023-05-24T13:11:45.381Z,100879.75
2023-05-24T13:16:51.134Z,100871.97
2023-05-24T13:21:54.889Z,100868.38
2023-05-24T13:26:58.792Z,100864.00
2023-05-24T13:32:04.151Z,100868.97
2023-05-24T13:37:07.977Z,100867.59
2023-05-24T13:42:11.825Z,100874.44
2023-05-24T13:47:27.297Z,100888.25
2023-05-24T13:52:39.478Z,100894.00
2023-05-24T13:57:51.556Z,100901.63
2023-05-24T14:02:57.599Z,100899.59
2023-05-24T14:08:01.343Z,100914.16
2023-05-24T14:18:16.514Z,100928.22
2023-05-24T14:23:20.200Z,100936.94
2023-05-24T14:28:23.892Z,100949.94
2023-05-24T14:33:29.210Z,100962.09
2023-05-24T14:38:32.946Z,100963.84
2023-05-24T14:43:36.604Z,100978.91
2023-05-24T14:48:41.926Z,100978.69
2023-05-24T14:53:45.631Z,100991.59
2023-05-24T14:58:49.282Z,100988.72
2023-05-24T15:03:54.750Z,101001.09
2023-05-24T15:08:58.561Z,101004.00
2023-05-24T15:14:02.241Z,101000.31
2023-05-24T15:19:07.585Z,100998.44
2023-05-24T15:24:11.262Z,100991.13
2023-05-24T15:29:14.970Z,100988.31
2023-05-24T15:34:21.498Z,100981.75
2023-05-24T15:39:27.226Z,100989.66
2023-05-24T15:44:30.914Z,100978.50
2023-05-24T15:49:37.223Z,100973.38
2023-05-24T15:54:40.885Z,100973.00
2023-05-24T15:59:44.604Z,100980.13
2023-05-24T16:04:51.658Z,100995.78
2023-05-24T16:09:55.438Z,100989.84
2023-05-24T16:15:00.378Z,100993.00
2023-05-24T16:20:06.371Z,101006.41
2023-05-24T16:25:09.558Z,101002.88
2023-05-24T16:30:13.920Z,100999.81
2023-05-24T16:35:19.298Z,101005.03
2023-05-24T16:40:23.175Z,101008.06
2023-05-24T16:45:26.859Z,100996.31
2023-05-24T16:50:32.176Z,101005.06
2023-05-24T16:55:35.820Z,100999.38
2023-05-24T17:00:39.477Z,101000.00
2023-05-24T17:05:44.796Z,101000.38
2023-05-24T17:10:48.589Z,101009.44
2023-05-24T17:15:52.450Z,101016.44
2023-05-24T17:20:58.697Z,101011.59
2023-05-24T17:26:02.990Z,101018.16
2023-05-24T17:31:09.242Z,101018.84
2023-05-24T17:36:14.608Z,101015.69
2023-05-24T17:41:18.320Z,101007.84
2023-05-24T17:46:22.004Z,101016.19
2023-05-24T17:51:27.388Z,101005.16
2023-05-24T17:56:31.054Z,101003.69
2023-05-24T18:01:35.197Z,101004.84
2023-05-24T18:06:40.556Z,101028.50
2023-05-24T18:11:44.215Z,101016.94
2023-05-24T18:16:47.928Z,101025.47
2023-05-24T18:21:54.102Z,101024.09
2023-05-24T18:26:57.733Z,101028.50
2023-05-24T18:32:01.424Z,101029.59
2023-05-24T18:37:06.946Z,101023.41
2023-05-24T18:42:10.592Z,101025.13
2023-05-24T18:47:14.255Z,101031.03
2023-05-24T18:52:20.488Z,101025.81
2023-05-24T18:57:24.195Z,101017.06
2023-05-24T19:02:27.984Z,101013.19
2023-05-24T19:07:35.090Z,101005.94
2023-05-24T19:12:38.811Z,101007.16
2023-05-24T19:17:42.509Z,101012.44
2023-05-24T19:22:48.006Z,101008.63
2023-05-24T19:32:58.088Z,101005.81
2023-05-24T19:38:03.473Z,100999.69
2023-05-24T19:43:07.137Z,100998.59
2023-05-24T19:48:10.761Z,101000.69
2023-05-24T19:53:16.603Z,100987.03
2023-05-24T19:58:20.255Z,100983.34
2023-05-24T20:03:23.966Z,101000.41
2023-05-24T20:08:29.390Z,100974.31
2023-05-24T20:13:33.053Z,100973.97
2023-05-24T20:18:36.731Z,100978.16
2023-05-24T20:23:43.001Z,100971.97
2023-05-24T20:28:46.648Z,100965.63
2023-05-24T20:33:51.079Z,100958.41
2023-05-24T20:38:56.451Z,100950.59
2023-05-24T20:44:00.120Z,100941.69
2023-05-24T20:49:03.783Z,100948.00
2023-05-24T20:54:09.173Z,100941.84
2023-05-24T20:59:12.888Z,100932.88
2023-05-24T21:04:16.557Z,100939.81
2023-05-24T21:09:21.887Z,100939.03
2023-05-24T21:14:25.540Z,100926.28
2023-05-24T21:19:29.239Z,100934.97
2023-05-24T21:24:34.572Z,100924.22
2023-05-24T21:29:38.247Z,100915.50
2023-05-24T21:34:42.068Z,100902.22
2023-05-24T21:39:48.353Z,100908.00
2023-05-24T21:44:52.056Z,100898.63
2023-05-24T21:49:55.745Z,100893.84
2023-05-24T22:00:32.143Z,100881.13
2023-05-24T22:05:35.807Z,100882.69
2023-05-24T22:10:41.151Z,100877.28
2023-05-24T22:15:45.094Z,100866.53
2023-05-24T22:20:50.455Z,100869.09
2023-05-24T22:25:55.742Z,100862.84
2023-05-24T22:30:59.413Z,100863.28
2023-05-24T22:36:03.032Z,100848.41
2023-05-24T22:41:08.422Z,100866.75
2023-05-24T22:46:11.419Z,100851.59
2023-05-24T22:51:15.034Z,100852.06
2023-05-24T22:56:20.503Z,100846.03
2023-05-24T23:01:23.510Z,100845.25
2023-05-24T23:06:27.245Z,100829.91
2023-05-24T23:11:32.589Z,100822.28
2023-05-24T23:16:36.565Z,100819.28
2023-05-24T23:21:40.297Z,100824.28
2023-05-24T23:26:45.614Z,100823.81
2023-05-24T23:31:49.331Z,100816.28
2023-05-24T23:36:53.204Z,100815.25
2023-05-24T23:41:58.597Z,100815.50
2023-05-24T23:47:03.547Z,100811.09
2023-05-24T23:52:08.184Z,100805.59
2023-05-24T23:57:13.982Z,100809.38
